sensor_id;sensor_type;location;lat;lon;timestamp;temperature;humidity
41080;DHT22;26826;50.718;7.114;2023-04-30T00:02:35;10.20;99.90
41080;DHT22;26826;50.718;7.114;2023-04-30T00:12:36;10.10;99.90
41080;DHT22;26826;50.718;7.114;2023-04-30T00:22:36;9.90;99.90
41080;DHT22;26826;50.718;7.114;2023-04-30T00:32:38;9.70;99.90
41080;DHT22;26826;50.718;7.114;2023-04-30T00:42:38;9.50;99.90
41080;DHT22;26826;50.718;7.114;2023-04-30T00:52:39;9.30;99.90
41080;DHT22;26826;50.718;7.114;2023-04-30T01:02:40;9.20;99.90
41080;DHT22;26826;50.718;7.114;2023-04-30T01:33:02;8.90;99.90
41080;DHT22;26826;50.718;7.114;2023-04-30T01:43:11;8.70;99.90
41080;DHT22;26826;50.718;7.114;2023-04-30T01:53:23;8.50;99.90
41080;DHT22;26826;50.718;7.114;2023-04-30T02:03:27;8.40;99.90
41080;DHT22;26826;50.718;7.114;2023-04-30T02:13:27;8.30;99.90
41080;DHT22;26826;50.718;7.114;2023-04-30T02:23:28;8.20;99.90
41080;DHT22;26826;50.718;7.114;2023-04-30T02:33:28;8.10;99.90
41080;DHT22;26826;50.718;7.114;2023-04-30T02:43:29;8.00;99.90
41080;DHT22;26826;50.718;7.114;2023-04-30T02:53:29;7.90;99.90
41080;DHT22;26826;50.718;7.114;2023-04-30T03:03:30;7.80;99.90
41080;DHT22;26826;50.718;7.114;2023-04-30T03:13:31;7.80;99.90
41080;DHT22;26826;50.718;7.114;2023-04-30T03:23:31;7.60;99.90
41080;DHT22;26826;50.718;7.114;2023-04-30T03:33:32;7.40;99.90
41080;DHT22;26826;50.718;7.114;2023-04-30T03:43:32;7.30;99.90
41080;DHT22;26826;50.718;7.114;2023-04-30T03:53:33;7.20;99.90
41080;DHT22;26826;50.718;7.114;2023-04-30T04:03:34;7.10;99.90
41080;DHT22;26826;50.718;7.114;2023-04-30T04:13:34;7.10;99.90
41080;DHT22;26826;50.718;7.114;2023-04-30T04:23:35;7.00;99.90
41080;DHT22;26826;50.718;7.114;2023-04-30T04:33:35;7.00;99.90
41080;DHT22;26826;50.718;7.114;2023-04-30T04:43:36;7.20;99.90
41080;DHT22;26826;50.718;7.114;2023-04-30T04:53:37;7.30;99.90
41080;DHT22;26826;50.718;7.114;2023-04-30T05:03:37;7.50;99.90
41080;DHT22;26826;50.718;7.114;2023-04-30T05:13:38;7.50;99.90
41080;DHT22;26826;50.718;7.114;2023-04-30T05:23:39;7.60;99.90
41080;DHT22;26826;50.718;7.114;2023-04-30T05:33:39;7.80;99.90
41080;DHT22;26826;50.718;7.114;2023-04-30T05:43:40;7.80;99.90
41080;DHT22;26826;50.718;7.114;2023-04-30T05:53:40;7.90;99.90
41080;DHT22;26826;50.718;7.114;2023-04-30T06:03:41;8.00;99.90
41080;DHT22;26826;50.718;7.114;2023-04-30T06:13:42;7.90;99.90
41080;DHT22;26826;50.718;7.114;2023-04-30T06:23:42;7.80;99.90
41080;DHT22;26826;50.718;7.114;2023-04-30T06:33:43;8.00;99.90
41080;DHT22;26826;50.718;7.114;2023-04-30T06:43:43;8.20;99.90
41080;DHT22;26826;50.718;7.114;2023-04-30T06:53:44;8.40;99.90
41080;DHT22;26826;50.718;7.114;2023-04-30T07:03:45;8.50;99.90
41080;DHT22;26826;50.718;7.114;2023-04-30T07:13:45;9.10;99.90
41080;DHT22;26826;50.718;7.114;2023-04-30T07:23:46;9.50;99.90
41080;DHT22;26826;50.718;7.114;2023-04-30T07:33:48;9.50;99.90
41080;DHT22;26826;50.718;7.114;2023-04-30T07:43:49;9.80;99.90
41080;DHT22;26826;50.718;7.114;2023-04-30T07:53:50;10.60;99.90
41080;DHT22;26826;50.718;7.114;2023-04-30T08:03:52;11.60;99.90
41080;DHT22;26826;50.718;7.114;2023-04-30T08:13:53;12.80;99.90
41080;DHT22;26826;50.718;7.114;2023-04-30T08:23:54;13.70;99.90
41080;DHT22;26826;50.718;7.114;2023-04-30T08:33:54;14.40;99.90
41080;DHT22;26826;50.718;7.114;2023-04-30T08:43:55;15.40;99.90
41080;DHT22;26826;50.718;7.114;2023-04-30T08:54:00;16.20;99.90
41080;DHT22;26826;50.718;7.114;2023-04-30T09:04:02;16.80;99.90
41080;DHT22;26826;50.718;7.114;2023-04-30T09:14:03;17.60;99.90
41080;DHT22;26826;50.718;7.114;2023-04-30T09:24:04;18.40;99.90
41080;DHT22;26826;50.718;7.114;2023-04-30T09:34:05;19.10;99.90
41080;DHT22;26826;50.718;7.114;2023-04-30T09:44:35;19.50;99.90
41080;DHT22;26826;50.718;7.114;2023-04-30T09:54:37;20.10;97.10
41080;DHT22;26826;50.718;7.114;2023-04-30T10:04:43;20.10;94.70
41080;DHT22;26826;50.718;7.114;2023-04-30T10:14:51;20.20;92.90
41080;DHT22;26826;50.718;7.114;2023-04-30T10:24:53;19.70;92.70
41080;DHT22;26826;50.718;7.114;2023-04-30T10:35:21;20.40;92.60
41080;DHT22;26826;50.718;7.114;2023-04-30T10:45:37;21.00;92.50
41080;DHT22;26826;50.718;7.114;2023-04-30T10:55:59;22.50;93.10
41080;DHT22;26826;50.718;7.114;2023-04-30T11:06:13;23.50;91.50
41080;DHT22;26826;50.718;7.114;2023-04-30T11:16:17;23.20;90.50
41080;DHT22;26826;50.718;7.114;2023-04-30T11:26:19;23.50;90.50
41080;DHT22;26826;50.718;7.114;2023-04-30T11:36:21;23.40;90.10
41080;DHT22;26826;50.718;7.114;2023-04-30T11:46:21;23.60;88.90
41080;DHT22;26826;50.718;7.114;2023-04-30T11:56:23;24.50;87.10
41080;DHT22;26826;50.718;7.114;2023-04-30T12:06:26;24.60;85.00
41080;DHT22;26826;50.718;7.114;2023-04-30T12:16:28;23.40;88.10
41080;DHT22;26826;50.718;7.114;2023-04-30T12:26:39;24.20;84.90
41080;DHT22;26826;50.718;7.114;2023-04-30T12:36:41;24.10;86.80
41080;DHT22;26826;50.718;7.114;2023-04-30T12:46:49;24.70;84.10
41080;DHT22;26826;50.718;7.114;2023-04-30T12:57:04;24.40;83.70
41080;DHT22;26826;50.718;7.114;2023-04-30T13:07:05;24.10;82.40
41080;DHT22;26826;50.718;7.114;2023-04-30T13:17:06;23.60;80.70
41080;DHT22;26826;50.718;7.114;2023-04-30T13:27:08;23.40;82.40
41080;DHT22;26826;50.718;7.114;2023-04-30T13:37:09;23.90;83.80
41080;DHT22;26826;50.718;7.114;2023-04-30T13:47:10;25.20;83.20
41080;DHT22;26826;50.718;7.114;2023-04-30T13:57:11;24.70;83.40
41080;DHT22;26826;50.718;7.114;2023-04-30T14:07:11;24.10;80.80
41080;DHT22;26826;50.718;7.114;2023-04-30T14:17:12;23.50;80.60
41080;DHT22;26826;50.718;7.114;2023-04-30T14:27:13;23.80;81.10
41080;DHT22;26826;50.718;7.114;2023-04-30T14:37:13;24.30;80.00
41080;DHT22;26826;50.718;7.114;2023-04-30T14:47:16;23.00;80.20
41080;DHT22;26826;50.718;7.114;2023-04-30T14:57:17;22.50;82.20
41080;DHT22;26826;50.718;7.114;2023-04-30T15:07:18;22.30;80.90
41080;DHT22;26826;50.718;7.114;2023-04-30T15:17:20;22.70;79.60
41080;DHT22;26826;50.718;7.114;2023-04-30T15:27:21;23.10;80.30
41080;DHT22;26826;50.718;7.114;2023-04-30T15:47:26;22.90;79.90
41080;DHT22;26826;50.718;7.114;2023-04-30T15:57:26;23.00;79.90
41080;DHT22;26826;50.718;7.114;2023-04-30T16:07:27;22.50;79.60
41080;DHT22;26826;50.718;7.114;2023-04-30T16:17:27;22.20;81.20
41080;DHT22;26826;50.718;7.114;2023-04-30T16:27:28;22.60;77.90
41080;DHT22;26826;50.718;7.114;2023-04-30T16:37:28;21.90;80.40
41080;DHT22;26826;50.718;7.114;2023-04-30T16:47:30;22.10;80.80
41080;DHT22;26826;50.718;7.114;2023-04-30T16:57:30;22.30;80.90
41080;DHT22;26826;50.718;7.114;2023-04-30T17:07:31;21.80;79.70
41080;DHT22;26826;50.718;7.114;2023-04-30T17:17:32;20.80;80.00
41080;DHT22;26826;50.718;7.114;2023-04-30T17:27:32;20.20;81.30
41080;DHT22;26826;50.718;7.114;2023-04-30T17:37:34;19.80;82.90
41080;DHT22;26826;50.718;7.114;2023-04-30T17:47:35;19.60;82.30
41080;DHT22;26826;50.718;7.114;2023-04-30T17:57:35;19.30;84.10
41080;DHT22;26826;50.718;7.114;2023-04-30T18:07:36;19.10;85.10
41080;DHT22;26826;50.718;7.114;2023-04-30T18:17:37;18.70;87.80
41080;DHT22;26826;50.718;7.114;2023-04-30T18:27:38;18.50;88.40
41080;DHT22;26826;50.718;7.114;2023-04-30T18:37:42;18.20;88.80
41080;DHT22;26826;50.718;7.114;2023-04-30T18:47:43;17.90;89.10
41080;DHT22;26826;50.718;7.114;2023-04-30T18:57:44;17.60;90.60
41080;DHT22;26826;50.718;7.114;2023-04-30T19:07:44;17.10;91.70
41080;DHT22;26826;50.718;7.114;2023-04-30T19:17:45;16.60;92.20
41080;DHT22;26826;50.718;7.114;2023-04-30T19:27:46;16.20;93.10
41080;DHT22;26826;50.718;7.114;2023-04-30T19:37:47;15.80;94.10
41080;DHT22;26826;50.718;7.114;2023-04-30T19:47:47;15.50;94.80
41080;DHT22;26826;50.718;7.114;2023-04-30T19:57:48;15.40;94.60
41080;DHT22;26826;50.718;7.114;2023-04-30T20:07:48;15.10;95.10
41080;DHT22;26826;50.718;7.114;2023-04-30T20:17:50;15.00;95.20
41080;DHT22;26826;50.718;7.114;2023-04-30T20:27:53;14.70;97.00
41080;DHT22;26826;50.718;7.114;2023-04-30T20:37:55;14.40;98.30
41080;DHT22;26826;50.718;7.114;2023-04-30T20:47:55;14.30;99.10
41080;DHT22;26826;50.718;7.114;2023-04-30T20:57:56;14.10;99.90
41080;DHT22;26826;50.718;7.114;2023-04-30T21:07:57;14.00;99.90
41080;DHT22;26826;50.718;7.114;2023-04-30T21:18:00;13.80;99.90
41080;DHT22;26826;50.718;7.114;2023-04-30T21:28:01;13.70;99.90
41080;DHT22;26826;50.718;7.114;2023-04-30T21:48:06;13.40;99.90
41080;DHT22;26826;50.718;7.114;2023-04-30T21:58:06;13.40;99.90
41080;DHT22;26826;50.718;7.114;2023-04-30T22:08:07;13.40;99.90
41080;DHT22;26826;50.718;7.114;2023-04-30T22:18:08;13.40;99.90
41080;DHT22;26826;50.718;7.114;2023-04-30T22:28:08;13.30;99.90
41080;DHT22;26826;50.718;7.114;2023-04-30T22:38:09;13.30;99.90
41080;DHT22;26826;50.718;7.114;2023-04-30T22:48:11;13.30;99.90
41080;DHT22;26826;50.718;7.114;2023-04-30T22:58:12;13.30;99.90
41080;DHT22;26826;50.718;7.114;2023-04-30T23:08:13;13.20;99.90
41080;DHT22;26826;50.718;7.114;2023-04-30T23:18:13;13.20;99.90
41080;DHT22;26826;50.718;7.114;2023-04-30T23:28:14;13.00;99.90
41080;DHT22;26826;50.718;7.114;2023-04-30T23:38:14;12.90;99.90
41080;DHT22;26826;50.718;7.114;2023-04-30T23:48:15;12.80;99.90
41080;DHT22;26826;50.718;7.114;2023-04-30T23:58:16;12.70;99.90
